Sankuniki — JD2465 — position and weather

sailwx.info

Track history (hours):
 
Tides and Currents Weather Stations Pressure Air Temp Water Temp Dewpoint Dewpoint Depression Visibility Wind Speed Wind Dir Waves Ship Positions

Sankuniki

Last reported at 2017-Apr-14 15:41 UTC. Time now 2017-Apr-25 04:37 UTC.
Position N 34°51' E 139°39'.
Warning: this ship's position is 10 days out of date.

Length 71 m; draft 4 m.

Type: Cargo ship. MMSI: 431000269.

Date/timePositionNaut miles runAvg speedWind from/ knotsBaromVisibWave heightAir tempDewpointWater temp
2017-Apr-14 15:41N 34°51' E 139°39'11 0.3
2017-Apr-13 06:39N 34°57' E 139°28'411.9
2017-Apr-13 06:18N 34°59' E 139°32'411.8
2017-Apr-13 05:59N 35°02' E 139°36'612.6
2017-Apr-13 05:30N 35°06' E 139°41'612.8
2017-Apr-13 05:00N 35°11' E 139°45'611.9
2017-Apr-13 04:30N 35°17' E 139°45'612.1
2017-Apr-13 04:01N 35°23' E 139°42'612.5
2017-Apr-13 03:30N 35°27' E 139°47'612.7
2017-Apr-13 03:00N 35°31' E 139°54'1 0.2
2017-Apr-12 19:20N 35°31' E 139°55'412.3
2017-Apr-12 19:00N 35°28' E 139°51'612.2
2017-Apr-12 18:30N 35°24' E 139°46'612.1
2017-Apr-12 18:00N 35°18' E 139°45'612.3
2017-Apr-12 17:30N 35°12' E 139°47'611.9
2017-Apr-12 17:00N 35°06' E 139°45'611.9
2017-Apr-12 16:30N 35°00' E 139°43'  
2017-Apr-06 17:15N 34°51' E 139°43'413.2
2017-Apr-06 16:56N 34°50' E 139°38'  
Track history (hours):
 
Tides and Currents Weather Stations Pressure Air Temp Water Temp Dewpoint Dewpoint Depression Visibility Wind Speed Wind Dir Waves Ship Positions

Sankuniki

Last reported at 2017-Apr-14 15:41 UTC. Time now 2017-Apr-25 04:37 UTC.
Position N 34°51' E 139°39'.
Warning: this ship's position is 10 days out of date.

Length 71 m; draft 4 m.

Type: Cargo ship. MMSI: 431000269.

Date/timePositionNaut miles runAvg speedWind from/ knotsBaromVisibWave heightAir tempDewpointWater temp
2017-Apr-14 15:41N 34°51' E 139°39'11 0.3
2017-Apr-13 06:39N 34°57' E 139°28'411.9
2017-Apr-13 06:18N 34°59' E 139°32'411.8
2017-Apr-13 05:59N 35°02' E 139°36'612.6
2017-Apr-13 05:30N 35°06' E 139°41'612.8
2017-Apr-13 05:00N 35°11' E 139°45'611.9
2017-Apr-13 04:30N 35°17' E 139°45'612.1
2017-Apr-13 04:01N 35°23' E 139°42'612.5
2017-Apr-13 03:30N 35°27' E 139°47'612.7
2017-Apr-13 03:00N 35°31' E 139°54'1 0.2
2017-Apr-12 19:20N 35°31' E 139°55'412.3
2017-Apr-12 19:00N 35°28' E 139°51'612.2
2017-Apr-12 18:30N 35°24' E 139°46'612.1
2017-Apr-12 18:00N 35°18' E 139°45'612.3
2017-Apr-12 17:30N 35°12' E 139°47'611.9
2017-Apr-12 17:00N 35°06' E 139°45'611.9
2017-Apr-12 16:30N 35°00' E 139°43'  
2017-Apr-06 17:15N 34°51' E 139°43'413.2
2017-Apr-06 16:56N 34°50' E 139°38'  

Dump ship's entire track history